Time,TemperatureF,DewpointF,PressureIn,WindDirection,WindDirectionDegrees,WindSpeedMPH,WindSpeedGustMPH,Humidity,HourlyPrecipIn,Conditions,Clouds,dailyrainin,SoftwareType,DateUTC
2013-01-18 00:03:00,31.0,21.0,-100.00,NW,320,4.0,12.0,64,0.00,,,-99.99,,2013-01-18 05:03:00,
2013-01-18 00:12:00,30.0,19.0,-100.00,SSW,207,7.0,12.0,64,0.00,,,-99.99,,2013-01-18 05:12:00,
2013-01-18 00:22:00,30.0,19.0,-100.00,WSW,237,7.0,12.0,63,0.00,,,-99.99,,2013-01-18 05:22:00,
2013-01-18 00:33:00,31.0,21.0,-100.00,NW,323,4.0,12.0,63,0.00,,,-99.99,,2013-01-18 05:33:00,
2013-01-18 00:42:00,31.0,21.0,-100.00,SSW,208,7.0,12.0,66,0.00,,,-99.99,,2013-01-18 05:42:00,
2013-01-18 00:53:00,29.0,19.0,-100.00,WSW,241,10.0,14.0,66,0.00,,,-99.99,,2013-01-18 05:53:00,
2013-01-18 01:02:00,28.0,19.0,-100.00,SW,221,6.0,14.0,67,0.00,,,-99.99,,2013-01-18 06:02:00,
2013-01-18 01:12:00,27.0,18.0,-100.00,SW,216,9.0,14.0,66,0.00,,,-99.99,,2013-01-18 06:12:00,
2013-01-18 01:22:00,28.0,18.0,-100.00,SW,224,7.0,14.0,63,0.00,,,-99.99,,2013-01-18 06:22:00,
2013-01-18 01:33:00,28.0,18.0,-100.00,SSW,210,7.0,14.0,63,0.00,,,-99.99,,2013-01-18 06:33:00,
2013-01-18 01:43:00,27.0,16.0,-100.00,SW,216,9.0,14.0,60,0.00,,,-99.99,,2013-01-18 06:43:00,
2013-01-18 01:52:00,29.0,18.0,-100.00,SW,228,11.0,14.0,59,0.00,,,-99.99,,2013-01-18 06:52:00,
2013-01-18 02:02:00,28.0,18.0,-100.00,West,259,7.0,14.0,62,0.00,,,-99.99,,2013-01-18 07:02:00,
2013-01-18 02:12:00,28.0,18.0,-100.00,WSW,242,7.0,14.0,63,10.20,,,-99.99,,2013-01-18 07:12:00,
2013-01-18 02:22:00,28.0,19.0,-100.00,SW,216,6.0,14.0,71,0.55,,,-99.99,,2013-01-18 07:22:00,
2013-01-18 02:32:00,27.0,19.0,-100.00,WSW,255,6.0,14.0,69,0.00,,,-99.99,,2013-01-18 07:32:00,
2013-01-18 02:42:00,25.0,14.0,-100.00,SSW,211,7.0,14.0,62,0.00,,,-99.99,,2013-01-18 07:42:00,
2013-01-18 02:52:00,23.0,12.0,-100.00,West,262,7.0,14.0,59,0.00,,,-99.99,,2013-01-18 07:52:00,
2013-01-18 03:02:00,23.0,12.0,-100.00,WSW,240,8.0,14.0,59,0.00,,,-99.99,,2013-01-18 08:02:00,
2013-01-18 03:12:00,26.0,16.0,-100.00,SW,232,9.0,14.0,62,0.00,,,-99.99,,2013-01-18 08:12:00,
2013-01-18 03:22:00,25.0,16.0,-100.00,SW,227,9.0,14.0,64,0.00,,,-99.99,,2013-01-18 08:22:00,
2013-01-18 03:32:00,26.0,16.0,-100.00,WSW,237,9.0,14.0,63,0.00,,,-99.99,,2013-01-18 08:32:00,
2013-01-18 03:42:00,26.0,18.0,-100.00,NW,312,3.0,14.0,67,0.00,,,-99.99,,2013-01-18 08:42:00,
2013-01-18 03:53:00,25.0,19.0,-100.00,SSW,203,2.0,14.0,73,0.00,,,-99.99,,2013-01-18 08:53:00,
2013-01-18 04:03:00,25.0,18.0,-100.00,West,269,2.0,14.0,72,0.00,,,-99.99,,2013-01-18 09:03:00,
2013-01-18 04:12:00,23.0,14.0,-100.00,WSW,249,2.0,14.0,66,0.00,,,-99.99,,2013-01-18 09:12:00,
2013-01-18 04:22:00,23.0,14.0,-100.00,NW,320,3.0,14.0,63,0.00,,,-99.99,,2013-01-18 09:22:00,
2013-01-18 04:33:00,23.0,14.0,-100.00,West,271,2.0,14.0,63,0.00,,,-99.99,,2013-01-18 09:33:00,
2013-01-18 04:42:00,23.0,12.0,-100.00,NNW,348,2.0,14.0,62,0.00,,,-99.99,,2013-01-18 09:42:00,
2013-01-18 04:52:00,23.0,12.0,-100.00,SSW,200,2.0,14.0,60,0.00,,,-99.99,,2013-01-18 09:52:00,
2013-01-18 05:03:00,23.0,12.0,-100.00,West,269,2.0,14.0,59,0.00,,,-99.99,,2013-01-18 10:03:00,
2013-01-18 05:12:00,22.0,12.0,-100.00,WSW,249,2.0,14.0,60,0.00,,,-99.99,,2013-01-18 10:12:00,
2013-01-18 05:22:00,22.0,10.0,-100.00,WNW,285,1.0,14.0,59,0.00,,,-99.99,,2013-01-18 10:22:00,
2013-01-18 05:32:00,22.0,12.0,-100.00,WNW,288,1.0,14.0,62,0.00,,,-99.99,,2013-01-18 10:32:00,
2013-01-18 05:43:00,22.0,10.0,-100.00,West,262,1.0,14.0,60,0.00,,,-99.99,,2013-01-18 10:43:00,
2013-01-18 05:52:00,22.0,10.0,-100.00,NW,314,2.0,14.0,60,0.00,,,-99.99,,2013-01-18 10:52:00,
2013-01-18 06:02:00,22.0,12.0,-100.00,SSW,193,2.0,14.0,62,0.00,,,-99.99,,2013-01-18 11:02:00,
2013-01-18 06:12:00,23.0,14.0,-100.00,WNW,295,2.0,2.0,62,0.00,,,-99.99,,2013-01-18 11:12:00,
2013-01-18 06:23:00,22.0,12.0,-100.00,SW,235,1.0,2.0,63,0.00,,,-99.99,,2013-01-18 11:23:00,
2013-01-18 06:32:00,22.0,12.0,-100.00,SW,231,1.0,2.0,64,0.00,,,-99.99,,2013-01-18 11:32:00,
2013-01-18 06:42:00,23.0,14.0,-100.00,WSW,247,1.0,2.0,66,0.00,,,-99.99,,2013-01-18 11:42:00,
2013-01-18 06:52:00,22.0,14.0,-100.00,South,184,0.0,2.0,68,0.00,,,-99.99,,2013-01-18 11:52:00,
2013-01-18 07:03:00,18.0,10.0,-100.00,SSW,210,0.0,2.0,69,0.00,,,-99.99,,2013-01-18 12:03:00,
2013-01-18 07:12:00,22.0,16.0,-100.00,NNW,331,0.0,2.0,71,0.00,,,-99.99,,2013-01-18 12:12:00,
2013-01-18 07:23:00,21.0,14.0,-100.00,SW,223,0.0,2.0,73,0.00,,,-99.99,,2013-01-18 12:23:00,
2013-01-18 07:33:00,20.0,14.0,-100.00,SSW,192,0.0,2.0,73,0.00,,,-99.99,,2013-01-18 12:33:00,
2013-01-18 07:43:00,20.0,14.0,-100.00,WSW,256,0.0,2.0,75,0.00,,,-99.99,,2013-01-18 12:43:00,
2013-01-18 07:52:00,19.0,14.0,-100.00,West,278,0.0,2.0,77,0.00,,,-99.99,,2013-01-18 12:52:00,
2013-01-18 08:03:00,20.0,16.0,-100.00,SW,228,0.0,2.0,77,0.00,,,-99.99,,2013-01-18 13:03:00,
2013-01-18 08:12:00,20.0,14.0,-100.00,SW,225,1.0,2.0,77,0.00,,,-99.99,,2013-01-18 13:12:00,
2013-01-18 08:23:00,19.0,14.0,-100.00,West,279,0.0,2.0,78,0.00,,,-99.99,,2013-01-18 13:23:00,
2013-01-18 08:33:00,20.0,16.0,-100.00,NE,39,0.0,2.0,80,0.00,,,-99.99,,2013-01-18 13:33:00,
2013-01-18 08:43:00,20.0,14.0,-100.00,SW,220,0.0,2.0,78,0.00,,,-99.99,,2013-01-18 13:43:00,
2013-01-18 08:53:00,19.0,16.0,-100.00,WNW,290,0.0,2.0,81,0.00,,,-99.99,,2013-01-18 13:53:00,
2013-01-18 09:03:00,20.0,16.0,-100.00,WSW,254,0.0,2.0,81,0.00,,,-99.99,,2013-01-18 14:03:00,
2013-01-18 09:13:00,20.0,16.0,-100.00,West,268,1.0,2.0,81,0.00,,,-99.99,,2013-01-18 14:13:00,
2013-01-18 09:23:00,22.0,18.0,-100.00,SW,221,1.0,2.0,80,0.00,,,-99.99,,2013-01-18 14:23:00,
2013-01-18 09:34:00,24.0,19.0,-100.00,SW,224,3.0,4.0,76,0.00,,,-99.99,,2013-01-18 14:34:00,
2013-01-18 09:43:00,21.0,14.0,-100.00,WSW,244,4.0,6.0,72,0.00,,,-99.99,,2013-01-18 14:43:00,
2013-01-18 09:53:00,21.0,14.0,-100.00,SSW,207,4.0,6.0,71,0.00,,,-99.99,,2013-01-18 14:53:00,
2013-01-18 10:03:00,23.0,16.0,-100.00,SW,218,4.0,6.0,71,0.00,,,-99.99,,2013-01-18 15:03:00,
2013-01-18 10:13:00,22.0,14.0,-100.00,WSW,248,4.0,6.0,68,0.00,,,-99.99,,2013-01-18 15:13:00,
2013-01-18 10:23:00,22.0,14.0,-100.00,WSW,244,4.0,6.0,67,0.00,,,-99.99,,2013-01-18 15:23:00,
2013-01-18 10:34:00,22.0,14.0,-100.00,SSW,199,5.0,6.0,67,0.00,,,-99.99,,2013-01-18 15:34:00,
2013-01-18 10:43:00,25.0,16.0,-100.00,SSW,201,3.0,6.0,66,0.00,,,-99.99,,2013-01-18 15:43:00,
2013-01-18 10:53:00,24.0,16.0,-100.00,SW,224,3.0,6.0,66,0.00,,,-99.99,,2013-01-18 15:53:00,
2013-01-18 11:03:00,23.0,14.0,-100.00,SSW,194,4.0,6.0,62,0.00,,,-99.99,,2013-01-18 16:03:00,
2013-01-18 11:13:00,24.0,14.0,-100.00,SSW,206,3.0,6.0,63,0.00,,,-99.99,,2013-01-18 16:13:00,
2013-01-18 11:23:00,24.0,14.0,-100.00,SW,228,2.0,6.0,62,0.00,,,-99.99,,2013-01-18 16:23:00,
2013-01-18 11:33:00,27.0,18.0,-100.00,West,271,2.0,6.0,64,0.00,,,-99.99,,2013-01-18 16:33:00,
2013-01-18 11:43:00,24.0,14.0,-100.00,SW,224,4.0,6.0,62,0.00,,,-99.99,,2013-01-18 16:43:00,
2013-01-18 11:52:00,28.0,18.0,-100.00,WSW,248,5.0,6.0,62,0.00,,,-99.99,,2013-01-18 16:52:00,
2013-01-18 12:03:00,26.0,16.0,-100.00,SW,234,6.0,8.0,59,0.00,,,-99.99,,2013-01-18 17:03:00,
2013-01-18 12:13:00,27.0,16.0,-100.00,WSW,255,6.0,8.0,59,0.00,,,-99.99,,2013-01-18 17:13:00,
2013-01-18 12:23:00,27.0,16.0,-100.00,WSW,238,5.0,8.0,58,0.55,,,-99.99,,2013-01-18 17:23:00,
2013-01-18 12:33:00,28.0,16.0,-100.00,SW,224,7.0,12.0,58,1.69,,,-99.99,,2013-01-18 17:33:00,
2013-01-18 12:43:00,29.0,18.0,-100.00,SSW,213,6.0,12.0,59,0.00,,,-99.99,,2013-01-18 17:43:00,
2013-01-18 12:53:00,29.0,18.0,-100.00,SW,230,6.0,12.0,59,0.00,,,-99.99,,2013-01-18 17:53:00,
2013-01-18 13:03:00,29.0,18.0,-100.00,West,276,7.0,12.0,59,2.83,,,-99.99,,2013-01-18 18:03:00,
2013-01-18 13:13:00,31.0,18.0,-100.00,SSW,211,6.0,12.0,56,0.00,,,-99.99,,2013-01-18 18:13:00,
2013-01-18 13:23:00,31.0,18.0,-100.00,WSW,241,6.0,12.0,58,0.00,,,-99.99,,2013-01-18 18:23:00,
2013-01-18 13:33:00,30.0,18.0,-100.00,WNW,282,4.0,12.0,56,0.00,,,-99.99,,2013-01-18 18:33:00,
2013-01-18 13:43:00,31.0,18.0,-100.00,West,278,4.0,12.0,55,6.22,,,-99.99,,2013-01-18 18:43:00,
2013-01-18 13:52:00,32.0,18.0,-100.00,WSW,240,3.0,12.0,54,0.00,,,-99.99,,2013-01-18 18:52:00,
2013-01-18 14:03:00,32.0,16.0,-100.00,WSW,242,6.0,12.0,51,0.00,,,-99.99,,2013-01-18 19:03:00,
2013-01-18 14:13:00,32.0,19.0,-100.00,WSW,251,8.0,12.0,55,0.00,,,-99.99,,2013-01-18 19:13:00,
2013-01-18 14:23:00,32.0,18.0,-100.00,West,280,6.0,12.0,54,0.00,,,-99.99,,2013-01-18 19:23:00,
2013-01-18 14:33:00,33.0,18.0,-100.00,SW,216,7.0,12.0,51,5.67,,,-99.99,,2013-01-18 19:33:00,
2013-01-18 14:43:00,33.0,19.0,-100.00,WSW,256,7.0,12.0,53,2.83,,,-99.99,,2013-01-18 19:43:00,
2013-01-18 14:52:00,34.0,18.0,-100.00,SW,234,6.0,12.0,49,0.55,,,-99.99,,2013-01-18 19:52:00,
2013-01-18 15:03:00,34.0,18.0,-100.00,WSW,254,4.0,12.0,49,0.00,,,-99.99,,2013-01-18 20:03:00,
2013-01-18 15:13:00,32.0,16.0,-100.00,SW,230,5.0,12.0,50,0.00,,,-99.99,,2013-01-18 20:13:00,
2013-01-18 15:23:00,32.0,16.0,-100.00,West,266,5.0,12.0,50,0.00,,,-99.99,,2013-01-18 20:23:00,
2013-01-18 15:33:00,36.0,19.0,-100.00,West,262,4.0,12.0,49,0.00,,,-99.99,,2013-01-18 20:33:00,
2013-01-18 15:43:00,35.0,19.0,-100.00,WSW,255,4.0,12.0,50,0.00,,,-99.99,,2013-01-18 20:43:00,
2013-01-18 15:53:00,34.0,18.0,-100.00,WSW,240,2.0,12.0,50,0.00,,,-99.99,,2013-01-18 20:53:00,
2013-01-18 16:03:00,35.0,21.0,-100.00,West,269,1.0,12.0,53,0.00,,,-99.99,,2013-01-18 21:03:00,
2013-01-18 16:13:00,37.0,21.0,-100.00,WNW,285,2.0,12.0,51,0.00,,,-99.99,,2013-01-18 21:13:00,
2013-01-18 16:23:00,35.0,21.0,-100.00,West,279,2.0,12.0,54,0.00,,,-99.99,,2013-01-18 21:23:00,
2013-01-18 16:33:00,33.0,18.0,-100.00,SW,232,4.0,12.0,53,0.00,,,-99.99,,2013-01-18 21:33:00,
2013-01-18 16:43:00,34.0,19.0,-100.00,West,278,6.0,12.0,54,0.00,,,-99.99,,2013-01-18 21:43:00,
2013-01-18 16:52:00,33.0,19.0,-100.00,SW,220,4.0,12.0,55,0.00,,,-99.99,,2013-01-18 21:52:00,
2013-01-18 17:03:00,35.0,21.0,-100.00,NW,314,3.0,12.0,55,0.00,,,-99.99,,2013-01-18 22:03:00,
2013-01-18 17:12:00,33.0,19.0,-100.00,West,268,4.0,12.0,55,0.00,,,-99.99,,2013-01-18 22:12:00,
2013-01-18 17:23:00,33.0,21.0,-100.00,WNW,302,3.0,12.0,58,0.00,,,-99.99,,2013-01-18 22:23:00,
2013-01-18 17:33:00,34.0,21.0,-100.00,West,259,3.0,12.0,58,0.00,,,-99.99,,2013-01-18 22:33:00,
2013-01-18 17:43:00,33.0,21.0,-100.00,West,279,3.0,12.0,59,0.00,,,-99.99,,2013-01-18 22:43:00,
2013-01-18 17:52:00,31.0,21.0,-100.00,NW,312,3.0,12.0,62,0.00,,,-99.99,,2013-01-18 22:52:00,
2013-01-18 18:03:00,32.0,21.0,-100.00,WNW,289,3.0,12.0,63,0.00,,,-99.99,,2013-01-18 23:03:00,
2013-01-18 18:12:00,32.0,21.0,-100.00,West,269,3.0,12.0,63,0.00,,,-99.99,,2013-01-18 23:12:00,
2013-01-18 18:23:00,35.0,27.0,-100.00,WNW,286,2.0,12.0,67,0.00,,,-99.99,,2013-01-18 23:23:00,
2013-01-18 18:33:00,32.0,23.0,-100.00,WSW,249,3.0,12.0,66,0.00,,,-99.99,,2013-01-18 23:33:00,
2013-01-18 18:43:00,31.0,23.0,-100.00,WNW,286,3.0,12.0,66,0.00,,,-99.99,,2013-01-18 23:43:00,
2013-01-18 18:52:00,31.0,23.0,-100.00,West,268,4.0,12.0,67,0.00,,,-99.99,,2013-01-18 23:52:00,
2013-01-18 19:02:00,32.0,23.0,-100.00,West,280,4.0,12.0,66,0.00,,,-99.99,,2013-01-19 00:02:00,
2013-01-18 19:13:00,31.0,21.0,-100.00,SW,235,3.0,12.0,66,0.00,,,-99.99,,2013-01-19 00:13:00,
2013-01-18 19:23:00,32.0,23.0,-100.00,WSW,241,2.0,12.0,67,0.00,,,-99.99,,2013-01-19 00:23:00,
2013-01-18 19:33:00,32.0,21.0,-100.00,SW,235,2.0,12.0,64,0.00,,,-99.99,,2013-01-19 00:33:00,
2013-01-18 19:43:00,32.0,23.0,-100.00,WSW,244,2.0,12.0,66,0.00,,,-99.99,,2013-01-19 00:43:00,
2013-01-18 19:53:00,31.0,21.0,-100.00,WSW,254,4.0,12.0,66,0.00,,,-99.99,,2013-01-19 00:53:00,
2013-01-18 20:03:00,30.0,19.0,-100.00,WNW,290,5.0,12.0,63,0.00,,,-99.99,,2013-01-19 01:03:00,
2013-01-18 20:12:00,32.0,23.0,-100.00,WSW,244,6.0,12.0,66,0.00,,,-99.99,,2013-01-19 01:12:00,
2013-01-18 20:23:00,31.0,21.0,-100.00,WSW,258,6.0,12.0,63,0.00,,,-99.99,,2013-01-19 01:23:00,
2013-01-18 20:33:00,32.0,21.0,-100.00,WSW,254,6.0,12.0,60,0.00,,,-99.99,,2013-01-19 01:33:00,
2013-01-18 20:43:00,31.0,19.0,-100.00,WSW,258,6.0,12.0,59,0.00,,,-99.99,,2013-01-19 01:43:00,
2013-01-18 20:52:00,32.0,21.0,-100.00,WSW,251,4.0,12.0,60,0.00,,,-99.99,,2013-01-19 01:52:00,
2013-01-18 21:03:00,30.0,19.0,-100.00,SW,217,6.0,12.0,59,0.00,,,-99.99,,2013-01-19 02:03:00,
2013-01-18 21:12:00,31.0,19.0,-100.00,SSW,211,6.0,12.0,58,0.00,,,-99.99,,2013-01-19 02:12:00,
2013-01-18 21:23:00,30.0,19.0,-100.00,West,275,4.0,12.0,60,0.00,,,-99.99,,2013-01-19 02:23:00,
2013-01-18 21:33:00,30.0,19.0,-100.00,WSW,248,2.0,12.0,60,0.00,,,-99.99,,2013-01-19 02:33:00,
2013-01-18 21:43:00,32.0,19.0,-100.00,SSW,208,5.0,12.0,58,0.00,,,-99.99,,2013-01-19 02:43:00,
2013-01-18 21:53:00,33.0,21.0,-100.00,WNW,293,5.0,12.0,58,0.00,,,-99.99,,2013-01-19 02:53:00,
2013-01-18 22:03:00,32.0,19.0,-100.00,WSW,258,7.0,12.0,58,0.00,,,-99.99,,2013-01-19 03:03:00,
2013-01-18 22:12:00,31.0,19.0,-100.00,SW,230,6.0,12.0,58,0.00,,,-99.99,,2013-01-19 03:12:00,
2013-01-18 22:23:00,32.0,19.0,-100.00,SW,218,6.0,12.0,56,0.00,,,-99.99,,2013-01-19 03:23:00,
2013-01-18 22:33:00,34.0,21.0,-100.00,West,280,6.0,12.0,56,0.00,,,-99.99,,2013-01-19 03:33:00,
2013-01-18 22:43:00,32.0,19.0,-100.00,WSW,258,5.0,12.0,59,0.00,,,-99.99,,2013-01-19 03:43:00,
2013-01-18 22:52:00,32.0,19.0,-100.00,West,279,6.0,12.0,58,0.00,,,-99.99,,2013-01-19 03:52:00,
2013-01-18 23:02:00,32.0,19.0,-100.00,WSW,248,5.0,12.0,56,0.00,,,-99.99,,2013-01-19 04:02:00,
2013-01-18 23:12:00,32.0,21.0,-100.00,WSW,241,3.0,12.0,60,0.00,,,-99.99,,2013-01-19 04:12:00,
2013-01-18 23:22:00,33.0,21.0,-100.00,SSW,199,6.0,12.0,58,0.00,,,-99.99,,2013-01-19 04:22:00,
2013-01-18 23:33:00,34.0,21.0,-100.00,WSW,254,6.0,12.0,58,0.00,,,-99.99,,2013-01-19 04:33:00,
2013-01-18 23:42:00,33.0,19.0,-100.00,SSW,196,7.0,12.0,56,0.00,,,-99.99,,2013-01-19 04:42:00,
2013-01-18 23:52:00,35.0,23.0,-100.00,WSW,240,6.0,12.0,58,0.00,,,-99.99,,2013-01-19 04:52:00,